Time;durP1;ratioP1;P1;durP2;ratioP2;P2;SDS_P1;SDS_P2;PMS_P1;PMS_P2;Temp;Humidity;BMP_temperature;BMP_pressure;BME280_temperature;BME280_humidity;BME280_pressure;Samples;Min_cycle;Max_cycle;Signal;HPM_P1;HPM_P2
2024/02/17 00:00:09;;;;;;;36.13;27.70;;;10.10;99.90;;;;;;5055120;28;20536;-68
2024/02/17 00:02:36;;;;;;;36.90;30.43;;;10.10;99.90;;;;;;5054443;28;20483;-68
2024/02/17 00:05:04;;;;;;;38.10;29.03;;;10.00;99.90;;;;;;5054325;28;20462;-68
2024/02/17 00:07:31;;;;;;;39.10;31.03;;;10.00;99.90;;;;;;5054237;28;20494;-68
2024/02/17 00:10:00;;;;;;;36.27;29.77;;;10.00;99.90;;;;;;5033368;28;20456;-68
2024/02/17 00:12:27;;;;;;;40.87;28.77;;;10.00;99.90;;;;;;5034808;28;20455;-68
2024/02/17 00:14:55;;;;;;;34.03;28.00;;;10.00;99.90;;;;;;5034283;28;20471;-68
2024/02/17 00:17:22;;;;;;;35.90;28.93;;;9.90;99.90;;;;;;5034673;28;20463;-68
2024/02/17 00:19:50;;;;;;;37.33;28.53;;;9.90;99.90;;;;;;5034492;28;20955;-68
2024/02/17 00:22:17;;;;;;;44.43;31.33;;;9.90;99.90;;;;;;5035203;28;20459;-68
2024/02/17 00:24:45;;;;;;;39.93;28.90;;;9.90;99.90;;;;;;5034125;28;20467;-68
2024/02/17 00:27:13;;;;;;;33.57;28.60;;;9.80;99.90;;;;;;5034290;28;20516;-68
2024/02/17 00:29:41;;;;;;;35.40;28.10;;;9.90;99.90;;;;;;5034696;28;20467;-69
2024/02/17 00:32:08;;;;;;;34.87;27.27;;;9.90;99.90;;;;;;5033468;28;20882;-68
2024/02/17 00:34:36;;;;;;;37.53;29.50;;;9.90;99.90;;;;;;5032846;28;20469;-69
2024/02/17 00:37:03;;;;;;;33.37;25.60;;;9.90;99.90;;;;;;5033445;28;20508;-68
2024/02/17 00:39:30;;;;;;;31.97;25.77;;;9.90;99.90;;;;;;5033669;28;20490;-68
2024/02/17 00:41:58;;;;;;;34.77;29.07;;;9.90;99.90;;;;;;5032855;28;20463;-69
2024/02/17 00:44:27;;;;;;;37.60;28.87;;;9.90;99.90;;;;;;5033518;28;20438;-69
2024/02/17 00:46:54;;;;;;;47.30;32.20;;;9.90;99.90;;;;;;5034184;28;20880;-69
2024/02/17 00:49:21;;;;;;;39.23;29.80;;;9.90;99.90;;;;;;5033741;28;20695;-69
2024/02/17 00:51:48;;;;;;;40.37;30.40;;;9.90;99.90;;;;;;5033259;28;20503;-69
2024/02/17 00:54:16;;;;;;;42.73;30.23;;;9.90;99.90;;;;;;5034451;28;20862;-69
2024/02/17 00:56:43;;;;;;;37.90;28.90;;;9.80;99.90;;;;;;5052582;28;20454;-70
2024/02/17 00:59:11;;;;;;;44.63;33.10;;;9.80;99.90;;;;;;5053069;28;20463;-69
2024/02/17 01:01:43;;;;;;;45.20;33.17;;;9.70;99.90;;;;;;5053123;28;20462;-70
2024/02/17 01:04:11;;;;;;;45.67;32.23;;;9.70;99.90;;;;;;5055368;28;20461;-69
2024/02/17 01:06:38;;;;;;;37.80;30.30;;;9.70;99.90;;;;;;5055709;28;20465;-69
2024/02/17 01:09:05;;;;;;;35.63;28.27;;;9.70;99.90;;;;;;5055598;28;20793;-70
2024/02/17 01:11:35;;;;;;;35.93;27.50;;;9.70;99.90;;;;;;5055354;28;20464;-70
2024/02/17 01:14:02;;;;;;;40.30;29.70;;;9.70;99.90;;;;;;5056096;28;20556;-71
2024/02/17 01:16:30;;;;;;;34.67;28.10;;;9.70;99.90;;;;;;5055607;28;20514;-70
2024/02/17 01:18:59;;;;;;;42.53;27.70;;;9.60;99.90;;;;;;5055711;28;20549;-70
2024/02/17 01:21:26;;;;;;;37.70;29.77;;;9.60;99.90;;;;;;5055805;28;20461;-70
2024/02/17 01:23:55;;;;;;;42.80;30.30;;;9.60;99.90;;;;;;5056372;28;20462;-70
2024/02/17 01:26:22;;;;;;;41.80;29.30;;;9.60;99.90;;;;;;5057620;28;20942;-70
2024/02/17 01:28:49;;;;;;;40.60;28.33;;;9.50;99.90;;;;;;5057156;28;20498;-70
2024/02/17 01:31:17;;;;;;;37.90;27.63;;;9.50;99.90;;;;;;5057075;28;20873;-70
2024/02/17 01:33:46;;;;;;;39.80;28.03;;;9.50;99.90;;;;;;5056973;28;20466;-70
2024/02/17 01:36:18;;;;;;;36.93;27.93;;;9.50;99.90;;;;;;5057331;28;20757;-70
2024/02/17 01:38:46;;;;;;;40.27;29.77;;;9.50;99.90;;;;;;5057066;28;20461;-70
2024/02/17 01:41:14;;;;;;;41.40;29.20;;;9.50;99.90;;;;;;5056909;28;20465;-70
2024/02/17 01:43:42;;;;;;;46.30;31.70;;;9.60;99.90;;;;;;5056864;28;20540;-70
2024/02/17 01:46:10;;;;;;;49.90;31.97;;;9.50;99.90;;;;;;5056972;28;20462;-70
2024/02/17 01:48:38;;;;;;;45.30;31.40;;;9.50;99.90;;;;;;5056249;28;20490;-70
2024/02/17 01:51:09;;;;;;;41.23;30.13;;;9.50;99.90;;;;;;5056616;28;20880;-70
2024/02/17 01:53:37;;;;;;;42.53;31.13;;;9.50;99.90;;;;;;5056142;28;20490;-70
2024/02/17 01:56:07;;;;;;;39.80;28.47;;;9.40;99.90;;;;;;5056779;28;20519;-70
2024/02/17 01:58:34;;;;;;;38.80;27.63;;;9.40;99.90;;;;;;5056443;28;20463;-70
2024/02/17 02:01:02;;;;;;;37.30;27.67;;;9.40;99.90;;;;;;5055991;28;20637;-70
2024/02/17 02:03:30;;;;;;;42.90;30.03;;;9.40;99.90;;;;;;5056605;28;20495;-70
2024/02/17 02:05:57;;;;;;;42.87;26.70;;;9.40;99.90;;;;;;5056655;28;20463;-70
2024/02/17 02:08:25;;;;;;;42.37;28.70;;;9.30;99.90;;;;;;5056723;28;20525;-70
2024/02/17 02:10:55;;;;;;;36.83;26.40;;;9.30;99.90;;;;;;5056154;28;20462;-69
2024/02/17 02:13:23;;;;;;;37.80;28.33;;;9.30;99.90;;;;;;5056874;28;20820;-69
2024/02/17 02:15:51;;;;;;;39.17;28.13;;;9.30;99.90;;;;;;5055900;28;20436;-69
2024/02/17 02:18:18;;;;;;;35.13;26.50;;;9.20;99.90;;;;;;5056836;28;20461;-69
2024/02/17 02:20:46;;;;;;;38.03;26.97;;;9.20;99.90;;;;;;5056781;28;20467;-69
2024/02/17 02:23:14;;;;;;;40.10;28.13;;;9.20;99.90;;;;;;5057201;28;20466;-69
2024/02/17 02:25:50;;;;;;;33.93;24.10;;;9.10;99.90;;;;;;5057729;28;20728;-69
2024/02/17 02:28:18;;;;;;;34.10;25.23;;;9.10;99.90;;;;;;5057180;28;20504;-68
2024/02/17 02:30:45;;;;;;;39.10;26.83;;;9.20;99.90;;;;;;5056912;28;20511;-68
2024/02/17 02:33:12;;;;;;;34.37;25.10;;;9.10;99.90;;;;;;5056637;28;20458;-68
2024/02/17 02:35:40;;;;;;;37.07;25.90;;;9.20;99.90;;;;;;5056782;28;20462;-68
2024/02/17 02:38:07;;;;;;;42.40;26.70;;;9.20;99.90;;;;;;5057410;28;20790;-68
2024/02/17 02:40:35;;;;;;;38.97;25.00;;;9.20;99.90;;;;;;5056622;28;20515;-67
2024/02/17 02:43:03;;;;;;;41.00;26.67;;;9.10;99.90;;;;;;5055366;28;20898;-68
2024/02/17 02:45:33;;;;;;;39.40;27.50;;;9.10;99.90;;;;;;5055594;28;20458;-68
2024/02/17 02:48:00;;;;;;;40.47;26.97;;;9.10;99.90;;;;;;5055661;28;20494;-67
2024/02/17 02:50:28;;;;;;;37.87;27.97;;;9.10;99.90;;;;;;5056157;28;20507;-67
2024/02/17 02:52:55;;;;;;;38.20;27.20;;;9.20;99.90;;;;;;5055566;28;20539;-67
2024/02/17 02:55:22;;;;;;;39.83;25.90;;;9.10;99.90;;;;;;5055676;28;20458;-67
2024/02/17 02:57:51;;;;;;;41.13;27.30;;;9.20;99.90;;;;;;5056222;28;20740;-67
2024/02/17 03:00:20;;;;;;;34.70;25.63;;;9.20;99.90;;;;;;5056190;28;20812;-67
2024/02/17 03:02:48;;;;;;;40.17;27.10;;;9.20;99.90;;;;;;5055634;28;20458;-67
2024/02/17 03:05:16;;;;;;;36.47;27.43;;;9.20;99.90;;;;;;5055791;28;20848;-67
2024/02/17 03:07:43;;;;;;;42.80;28.90;;;9.20;99.90;;;;;;5055939;28;20463;-67
2024/02/17 03:10:11;;;;;;;41.00;29.27;;;9.20;99.90;;;;;;5055655;28;20501;-67
2024/02/17 03:12:38;;;;;;;40.23;27.67;;;9.20;99.90;;;;;;5055133;28;20466;-67
2024/02/17 03:15:06;;;;;;;41.63;30.30;;;9.20;99.90;;;;;;5055373;28;20458;-67
2024/02/17 03:17:36;;;;;;;44.27;29.33;;;9.20;99.90;;;;;;5055611;28;20473;-67
2024/02/17 03:20:04;;;;;;;44.57;29.83;;;9.20;99.90;;;;;;5055360;28;20454;-67
2024/02/17 03:22:31;;;;;;;42.27;31.17;;;9.20;99.90;;;;;;5053575;28;20454;-67
2024/02/17 03:24:59;;;;;;;45.53;30.63;;;9.20;99.90;;;;;;5054641;28;20515;-67
2024/02/17 03:27:27;;;;;;;48.70;31.30;;;9.20;99.90;;;;;;5055363;28;20462;-67
2024/02/17 03:29:54;;;;;;;48.73;35.10;;;9.20;99.90;;;;;;5055196;28;20490;-67
2024/02/17 03:32:21;;;;;;;43.77;33.73;;;9.20;99.90;;;;;;5055386;28;20495;-66
2024/02/17 03:34:51;;;;;;;44.53;32.00;;;9.20;99.90;;;;;;5055101;28;20507;-66
2024/02/17 03:37:19;;;;;;;53.10;35.00;;;9.20;99.90;;;;;;5055129;28;20507;-67
2024/02/17 03:39:48;;;;;;;44.30;34.43;;;9.20;99.90;;;;;;5055472;28;20875;-67
2024/02/17 03:42:15;;;;;;;48.23;34.77;;;9.30;99.90;;;;;;5055433;28;20458;-67
2024/02/17 03:44:42;;;;;;;48.40;36.17;;;9.20;99.90;;;;;;5054176;28;20462;-67
2024/02/17 03:47:11;;;;;;;49.07;36.93;;;9.30;99.90;;;;;;5054929;28;20511;-67
2024/02/17 03:49:38;;;;;;;48.37;34.87;;;9.30;99.90;;;;;;5055096;28;20494;-67
2024/02/17 03:52:09;;;;;;;43.10;34.20;;;9.30;99.90;;;;;;5055490;28;20491;-66
2024/02/17 03:54:36;;;;;;;40.73;32.90;;;9.30;99.90;;;;;;5053550;28;20640;-67
2024/02/17 03:57:04;;;;;;;53.40;37.00;;;9.30;99.90;;;;;;5053363;28;20455;-66
2024/02/17 03:59:31;;;;;;;49.77;34.90;;;9.30;99.90;;;;;;5053329;28;20461;-66
2024/02/17 04:01:59;;;;;;;46.50;34.47;;;9.30;99.90;;;;;;5053211;28;20549;-67
2024/02/17 04:04:26;;;;;;;46.33;34.30;;;9.30;99.90;;;;;;5053547;28;20498;-66
2024/02/17 04:06:53;;;;;;;51.13;35.83;;;9.30;99.90;;;;;;5053098;28;20851;-66
2024/02/17 04:09:22;;;;;;;51.73;35.00;;;9.30;99.90;;;;;;5053145;28;20942;-66
2024/02/17 04:11:51;;;;;;;47.60;37.00;;;9.30;99.90;;;;;;5055069;28;20458;-66
2024/02/17 04:14:19;;;;;;;45.77;35.90;;;9.30;99.90;;;;;;5054700;28;20549;-66
2024/02/17 04:16:49;;;;;;;50.30;36.33;;;9.30;99.90;;;;;;5054526;28;20454;-66
2024/02/17 04:19:17;;;;;;;44.20;35.27;;;9.30;99.90;;;;;;5054612;28;20548;-66
2024/02/17 04:21:45;;;;;;;46.20;33.20;;;9.30;99.90;;;;;;5054554;28;20899;-66
2024/02/17 04:24:13;;;;;;;43.80;34.57;;;9.30;99.90;;;;;;5054747;28;20558;-66
2024/02/17 04:26:41;;;;;;;51.43;37.80;;;9.30;99.90;;;;;;5054274;28;20518;-66
2024/02/17 04:29:10;;;;;;;46.17;33.60;;;9.40;99.90;;;;;;5053813;28;20494;-66
2024/02/17 04:31:38;;;;;;;51.60;36.67;;;9.30;99.90;;;;;;5054700;28;20807;-66
2024/02/17 04:34:05;;;;;;;45.93;35.27;;;9.30;99.90;;;;;;5054410;28;20507;-66
2024/02/17 04:36:32;;;;;;;45.73;32.80;;;9.40;99.90;;;;;;5053836;28;20463;-66
2024/02/17 04:39:00;;;;;;;43.60;34.30;;;9.40;99.90;;;;;;5053736;28;20455;-66
2024/02/17 04:41:27;;;;;;;47.30;34.93;;;9.40;99.90;;;;;;5054315;28;20461;-66
2024/02/17 04:43:56;;;;;;;45.80;34.30;;;9.40;99.90;;;;;;5054219;28;20494;-66
2024/02/17 04:46:23;;;;;;;49.50;36.23;;;9.30;99.90;;;;;;5054304;28;20470;-66
2024/02/17 04:48:50;;;;;;;46.30;34.43;;;9.30;99.90;;;;;;5054020;28;20539;-66
2024/02/17 04:51:17;;;;;;;45.83;34.60;;;9.30;99.90;;;;;;5054092;28;20921;-66
2024/02/17 04:53:45;;;;;;;46.30;35.87;;;9.40;99.90;;;;;;5053707;28;20823;-66
2024/02/17 04:56:12;;;;;;;50.97;35.13;;;9.40;99.90;;;;;;5053891;28;20594;-66
2024/02/17 04:58:41;;;;;;;48.53;38.03;;;9.40;99.90;;;;;;5053679;28;20507;-66
2024/02/17 05:01:10;;;;;;;55.03;40.70;;;9.40;99.90;;;;;;5053930;28;20925;-66
2024/02/17 05:03:38;;;;;;;54.37;39.70;;;9.40;99.90;;;;;;5054526;28;20486;-66
2024/02/17 05:06:05;;;;;;;53.57;37.43;;;9.40;99.90;;;;;;5054269;28;20505;-66
2024/02/17 05:08:33;;;;;;;49.67;39.20;;;9.40;99.90;;;;;;5052402;28;20502;-66
2024/02/17 05:11:00;;;;;;;49.00;37.27;;;9.40;99.90;;;;;;5052545;28;20462;-66
2024/02/17 05:13:27;;;;;;;49.80;38.53;;;9.40;99.90;;;;;;5052470;28;20463;-66
2024/02/17 05:15:54;;;;;;;52.47;38.83;;;9.40;99.90;;;;;;5052828;28;20577;-66
2024/02/17 05:18:23;;;;;;;49.67;38.27;;;9.40;99.90;;;;;;5053320;28;20555;-66
2024/02/17 05:20:50;;;;;;;50.13;39.57;;;9.40;99.90;;;;;;5053134;28;20740;-66
2024/02/17 05:23:17;;;;;;;47.60;37.17;;;9.50;99.90;;;;;;5053581;28;20490;-66
2024/02/17 05:25:45;;;;;;;45.87;37.63;;;9.40;99.90;;;;;;5053661;28;20843;-66
2024/02/17 05:28:13;;;;;;;55.83;40.10;;;9.40;99.90;;;;;;5052254;28;20497;-66
2024/02/17 05:30:40;;;;;;;50.57;35.50;;;9.40;99.90;;;;;;5051598;28;20490;-66
2024/02/17 05:33:07;;;;;;;52.87;37.20;;;9.40;99.90;;;;;;5052074;28;20489;-66
2024/02/17 05:35:36;;;;;;;52.23;36.33;;;9.40;99.90;;;;;;5051958;28;20462;-66
2024/02/17 05:38:03;;;;;;;48.33;36.00;;;9.40;99.90;;;;;;5052385;28;20822;-66
2024/02/17 05:40:30;;;;;;;52.03;39.40;;;9.40;99.90;;;;;;5051327;28;21210;-66
2024/02/17 05:42:58;;;;;;;47.67;36.47;;;9.40;99.90;;;;;;5052753;28;20544;-66
2024/02/17 05:45:25;;;;;;;49.93;39.40;;;9.40;99.90;;;;;;5053404;28;20467;-66
2024/02/17 05:47:53;;;;;;;49.97;37.20;;;9.40;99.90;;;;;;5053375;28;20458;-66
2024/02/17 05:50:20;;;;;;;50.70;37.37;;;9.40;99.90;;;;;;5056840;28;20493;-66
2024/02/17 05:52:50;;;;;;;46.10;37.30;;;9.40;99.90;;;;;;5056444;28;20490;-66
2024/02/17 05:55:18;;;;;;;49.00;37.47;;;9.40;99.90;;;;;;5057203;28;20906;-66
2024/02/17 05:57:45;;;;;;;50.20;41.10;;;9.40;99.90;;;;;;5056442;28;20947;-66
2024/02/17 06:00:13;;;;;;;50.10;39.53;;;9.40;99.90;;;;;;5056867;28;20903;-66
2024/02/17 06:02:40;;;;;;;53.40;39.13;;;9.30;99.90;;;;;;5056659;28;20458;-66
2024/02/17 06:05:08;;;;;;;52.13;37.80;;;9.40;99.90;;;;;;5056362;28;20513;-66
2024/02/17 06:07:36;;;;;;;48.57;38.50;;;9.30;99.90;;;;;;5056750;28;20486;-66
2024/02/17 06:10:06;;;;;;;54.13;38.53;;;9.40;99.90;;;;;;5056571;28;20544;-66
2024/02/17 06:12:34;;;;;;;53.37;37.90;;;9.40;99.90;;;;;;5056199;28;20497;-65
2024/02/17 06:15:01;;;;;;;53.20;38.17;;;9.40;99.90;;;;;;5056214;28;20465;-66
2024/02/17 06:17:28;;;;;;;51.53;38.13;;;9.40;99.90;;;;;;5056051;28;20774;-65
2024/02/17 06:22:40;;;;;;;55.03;40.90;;;9.40;99.90;;;;;;5054101;28;20438;-66
2024/02/17 06:25:09;;;;;;;52.40;39.17;;;9.40;99.90;;;;;;5054161;28;20553;-65
2024/02/17 06:27:37;;;;;;;49.73;38.47;;;9.50;99.90;;;;;;5053533;28;20496;-66
2024/02/17 06:30:04;;;;;;;50.77;37.70;;;9.40;99.90;;;;;;5054811;28;20527;-66
2024/02/17 06:32:32;;;;;;;51.93;37.10;;;9.40;99.90;;;;;;5054378;28;20836;-66
2024/02/17 06:34:59;;;;;;;52.97;37.13;;;9.40;99.90;;;;;;5054174;28;20540;-65
2024/02/17 06:37:26;;;;;;;53.53;38.07;;;9.50;99.90;;;;;;5055386;28;20466;-70
2024/02/17 06:39:52;;;;;;;49.17;36.97;;;9.50;99.90;;;;;;5056319;27;20575;-69
2024/02/17 06:42:21;;;;;;;52.93;37.00;;;9.40;99.90;;;;;;5056385;28;20510;-70
2024/02/17 06:44:48;;;;;;;48.43;36.27;;;9.30;99.90;;;;;;5056275;27;20458;-70
2024/02/17 06:47:16;;;;;;;48.03;35.80;;;9.40;99.90;;;;;;5055713;27;20939;-70
2024/02/17 06:49:43;;;;;;;51.57;38.20;;;9.40;99.90;;;;;;5056205;27;20486;-70
2024/02/17 06:52:10;;;;;;;45.47;36.07;;;9.40;99.90;;;;;;5055429;28;20454;-69
2024/02/17 06:54:37;;;;;;;48.60;36.37;;;9.40;99.90;;;;;;5015912;28;20460;-70
2024/02/17 06:57:05;;;;;;;43.97;34.43;;;9.40;99.90;;;;;;5015787;28;20806;-70
2024/02/17 06:59:33;;;;;;;53.63;34.57;;;9.40;99.90;;;;;;5015998;28;20896;-70
2024/02/17 07:02:01;;;;;;;52.73;34.47;;;9.30;99.90;;;;;;5015941;28;20566;-69
2024/02/17 07:04:28;;;;;;;52.07;34.37;;;9.30;99.90;;;;;;5015584;28;20488;-70
2024/02/17 07:06:55;;;;;;;51.87;33.87;;;9.40;99.90;;;;;;5015808;28;20471;-70
2024/02/17 07:09:24;;;;;;;46.83;34.40;;;9.40;99.90;;;;;;5015606;28;20538;-70
2024/02/17 07:11:51;;;;;;;62.87;33.90;;;9.40;99.90;;;;;;5016062;28;20534;-70
2024/02/17 07:14:19;;;;;;;45.03;36.70;;;9.30;99.90;;;;;;5015913;28;20467;-70
2024/02/17 07:16:48;;;;;;;48.90;34.50;;;9.40;99.90;;;;;;5015764;28;20540;-70
2024/02/17 07:19:15;;;;;;;53.87;40.27;;;9.40;99.90;;;;;;5015508;28;20522;-70
2024/02/17 07:21:42;;;;;;;47.43;37.53;;;9.40;99.90;;;;;;5015973;28;20464;-70
2024/02/17 07:24:10;;;;;;;52.37;37.40;;;9.40;99.90;;;;;;5015986;28;20513;-70
2024/02/17 07:26:42;;;;;;;51.17;36.00;;;9.40;99.90;;;;;;5015805;28;20460;-70
2024/02/17 07:29:11;;;;;;;49.57;36.13;;;9.40;99.90;;;;;;5015809;28;20464;-70
2024/02/17 07:31:40;;;;;;;48.00;36.80;;;9.40;99.90;;;;;;5015817;28;20464;-70
2024/02/17 07:34:11;;;;;;;45.83;35.03;;;9.40;99.90;;;;;;5015415;28;20463;-69
2024/02/17 07:36:38;;;;;;;53.93;37.33;;;9.40;99.90;;;;;;5015969;28;20468;-70
2024/02/17 07:39:05;;;;;;;55.90;40.50;;;9.50;99.90;;;;;;5015535;28;20460;-70
2024/02/17 07:41:33;;;;;;;57.13;39.40;;;9.40;99.90;;;;;;5015625;28;20472;-69
2024/02/17 07:44:00;;;;;;;51.47;38.83;;;9.40;99.90;;;;;;5015565;28;20554;-70
2024/02/17 07:46:28;;;;;;;56.60;38.67;;;9.40;99.90;;;;;;5015303;28;20495;-69
2024/02/17 07:48:55;;;;;;;53.60;38.97;;;9.40;99.90;;;;;;5015385;28;20460;-69
2024/02/17 07:51:27;;;;;;;52.90;40.17;;;9.40;99.90;;;;;;5015037;28;20503;-70
2024/02/17 07:53:54;;;;;;;55.00;39.70;;;9.50;99.90;;;;;;5043054;28;20490;-69
2024/02/17 07:56:23;;;;;;;60.37;40.13;;;9.50;99.90;;;;;;5054942;28;20458;-70
2024/02/17 07:58:50;;;;;;;51.80;38.70;;;9.50;99.90;;;;;;5054713;28;20509;-70
2024/02/17 08:01:19;;;;;;;50.50;38.53;;;9.50;99.90;;;;;;5055319;27;20758;-70
2024/02/17 08:03:47;;;;;;;52.43;41.10;;;9.60;99.90;;;;;;5055327;27;20462;-70
2024/02/17 08:06:19;;;;;;;57.60;40.70;;;9.60;99.90;;;;;;5054876;27;20463;-69
2024/02/17 08:08:48;;;;;;;50.50;39.77;;;9.60;99.90;;;;;;5054452;28;20475;-70
2024/02/17 08:11:16;;;;;;;49.57;39.93;;;9.50;99.90;;;;;;5054833;27;20476;-69
2024/02/17 08:13:43;;;;;;;54.23;37.90;;;9.60;99.90;;;;;;5054921;27;20458;-69
2024/02/17 08:16:11;;;;;;;53.50;39.77;;;9.50;99.90;;;;;;5054537;27;20462;-70
2024/02/17 08:18:42;;;;;;;65.30;41.87;;;9.50;99.90;;;;;;5053204;28;20513;-68
2024/02/17 08:21:09;;;;;;;62.40;41.97;;;9.40;99.90;;;;;;5053399;28;20462;-69
2024/02/17 08:23:36;;;;;;;54.90;39.63;;;9.40;99.90;;;;;;5054106;27;20463;-69
2024/02/17 08:26:06;;;;;;;57.17;40.40;;;9.50;99.90;;;;;;5055023;27;20459;-70
2024/02/17 08:28:34;;;;;;;63.03;44.90;;;9.50;99.90;;;;;;5053905;28;20469;-69
2024/02/17 08:31:01;;;;;;;62.03;44.30;;;9.40;99.90;;;;;;5054438;27;20624;-61
2024/02/17 08:33:29;;;;;;;64.43;43.03;;;9.40;99.90;;;;;;5054800;27;20458;-61
2024/02/17 08:35:56;;;;;;;61.70;42.00;;;9.40;99.90;;;;;;5054400;27;20469;-62
2024/02/17 08:38:24;;;;;;;66.77;42.10;;;9.40;99.90;;;;;;5054686;28;20462;-61
2024/02/17 08:40:51;;;;;;;59.20;40.17;;;9.40;99.90;;;;;;5053974;28;20455;-61
2024/02/17 08:43:20;;;;;;;65.53;42.47;;;9.40;99.90;;;;;;5052657;27;20909;-61
2024/02/17 08:45:47;;;;;;;57.93;41.67;;;9.40;99.90;;;;;;5054399;28;20910;-61
2024/02/17 08:48:14;;;;;;;57.97;39.33;;;9.40;99.90;;;;;;5053652;28;20766;-61
2024/02/17 08:50:42;;;;;;;57.67;39.87;;;9.40;99.90;;;;;;5053925;28;20490;-61
2024/02/17 08:53:09;;;;;;;58.10;42.73;;;9.50;99.90;;;;;;5053537;28;20487;-61
2024/02/17 08:55:37;;;;;;;58.73;40.20;;;9.50;99.90;;;;;;5054067;28;20506;-61
2024/02/17 08:58:05;;;;;;;57.83;40.87;;;9.60;99.90;;;;;;5054402;28;20606;-61
2024/02/17 09:00:36;;;;;;;60.33;41.00;;;9.50;99.90;;;;;;5053831;28;20458;-61
2024/02/17 09:03:03;;;;;;;63.83;38.60;;;9.60;99.90;;;;;;5053938;28;20462;-61
2024/02/17 09:05:31;;;;;;;56.43;37.67;;;9.70;99.90;;;;;;5053942;28;20468;-61
2024/02/17 09:07:58;;;;;;;57.40;38.10;;;9.60;99.90;;;;;;5054028;28;20462;-60
2024/02/17 09:10:28;;;;;;;55.27;37.13;;;9.60;99.90;;;;;;5052902;28;20498;-60
2024/02/17 09:12:56;;;;;;;54.40;39.73;;;9.60;99.90;;;;;;5051963;28;20464;-62
2024/02/17 09:15:24;;;;;;;52.43;36.37;;;9.50;99.90;;;;;;5052359;28;20863;-62
2024/02/17 09:17:53;;;;;;;59.10;38.87;;;9.50;99.90;;;;;;5052427;28;20879;-62
2024/02/17 09:20:21;;;;;;;59.17;40.03;;;9.50;99.90;;;;;;5052491;28;20461;-61
2024/02/17 09:22:48;;;;;;;51.33;37.47;;;9.40;99.90;;;;;;5052427;28;20724;-61
2024/02/17 09:25:17;;;;;;;57.50;39.07;;;9.50;99.90;;;;;;5056604;28;20458;-61
2024/02/17 09:27:45;;;;;;;51.03;37.13;;;9.50;99.90;;;;;;5057428;28;20462;-61
2024/02/17 09:30:13;;;;;;;60.63;38.77;;;9.50;99.90;;;;;;5057688;28;20494;-61
2024/02/17 09:32:41;;;;;;;56.53;39.17;;;9.50;99.90;;;;;;5057136;28;20458;-61
2024/02/17 09:35:10;;;;;;;64.03;37.67;;;9.50;99.90;;;;;;5057398;28;20931;-61
2024/02/17 09:37:43;;;;;;;52.50;39.00;;;9.60;99.90;;;;;;5057116;28;20465;-61
2024/02/17 09:40:12;;;;;;;48.47;37.47;;;9.60;99.90;;;;;;5057453;28;20823;-61
2024/02/17 09:42:39;;;;;;;56.50;36.70;;;9.60;99.90;;;;;;5056583;28;20462;-61
2024/02/17 09:45:07;;;;;;;49.87;38.13;;;9.60;99.90;;;;;;5056907;28;20762;-61
2024/02/17 09:47:35;;;;;;;63.60;39.43;;;9.70;99.90;;;;;;5057168;28;20486;-61
2024/02/17 09:50:05;;;;;;;50.53;37.03;;;9.70;99.90;;;;;;5057070;28;20458;-61
2024/02/17 09:52:35;;;;;;;48.70;36.07;;;9.70;99.90;;;;;;5055834;28;20473;-61
2024/02/17 09:55:02;;;;;;;47.47;33.87;;;9.70;99.90;;;;;;5055906;28;20480;-61
2024/02/17 09:57:30;;;;;;;55.97;38.20;;;9.80;99.90;;;;;;5056074;28;20462;-61
2024/02/17 09:59:57;;;;;;;52.40;38.33;;;10.00;99.90;;;;;;5056592;28;20464;-61
2024/02/17 10:02:25;;;;;;;50.63;36.33;;;9.90;99.90;;;;;;5056631;28;20458;-61
2024/02/17 10:04:55;;;;;;;56.77;39.60;;;9.90;99.90;;;;;;5056231;28;20502;-61
2024/02/17 10:07:23;;;;;;;62.87;38.97;;;9.90;99.90;;;;;;5056830;28;20457;-61
2024/02/17 10:09:52;;;;;;;54.53;37.60;;;9.90;99.90;;;;;;5057079;28;20485;-61
2024/02/17 10:12:19;;;;;;;43.27;34.43;;;9.90;99.90;;;;;;5056585;28;20542;-61
2024/02/17 10:14:52;;;;;;;43.93;32.77;;;9.90;99.90;;;;;;5056339;28;20549;-60
2024/02/17 10:17:22;;;;;;;44.33;34.23;;;9.80;99.90;;;;;;5056809;28;20548;-60
2024/02/17 10:19:54;;;;;;;39.10;31.57;;;9.80;99.90;;;;;;5056398;28;20454;-61
2024/02/17 10:22:22;;;;;;;43.47;31.60;;;9.90;99.90;;;;;;5056164;28;20549;-60
2024/02/17 10:24:54;;;;;;;39.70;31.60;;;9.80;99.90;;;;;;5024163;28;20771;-61
2024/02/17 10:27:22;;;;;;;43.60;33.90;;;9.80;99.90;;;;;;5034601;28;20462;-61
2024/02/17 10:29:50;;;;;;;37.30;30.07;;;9.90;99.90;;;;;;5035046;28;20460;-60
2024/02/17 10:32:20;;;;;;;40.33;29.07;;;9.90;99.90;;;;;;5034925;28;20506;-59
2024/02/17 10:34:47;;;;;;;39.90;30.17;;;9.90;99.90;;;;;;5032299;28;20455;-58
2024/02/17 10:37:15;;;;;;;35.20;28.97;;;10.10;99.90;;;;;;5033112;28;20463;-59
2024/02/17 10:39:44;;;;;;;36.13;28.00;;;10.20;99.90;;;;;;5034096;28;20745;-58
2024/02/17 10:42:13;;;;;;;32.93;27.10;;;10.20;99.90;;;;;;5034610;28;20463;-59
2024/02/17 10:44:42;;;;;;;38.13;28.37;;;10.10;99.90;;;;;;5034475;28;20880;-59
2024/02/17 10:47:10;;;;;;;35.07;30.47;;;10.20;99.90;;;;;;5033977;28;20571;-61
2024/02/17 10:49:41;;;;;;;40.13;28.60;;;10.10;99.90;;;;;;5033693;28;20512;-62
2024/02/17 10:52:12;;;;;;;36.67;28.27;;;10.10;99.90;;;;;;5034649;28;20548;-62
2024/02/17 10:54:45;;;;;;;41.63;29.80;;;10.00;99.90;;;;;;5034071;28;20550;-61
2024/02/17 10:57:17;;;;;;;39.70;28.97;;;9.90;99.90;;;;;;5035081;28;20827;-60
2024/02/17 10:59:45;;;;;;;38.70;29.50;;;9.90;99.90;;;;;;5035395;28;20462;-61
2024/02/17 11:02:16;;;;;;;40.00;30.13;;;9.90;99.90;;;;;;5035183;28;20728;-61
2024/02/17 11:04:44;;;;;;;35.47;27.77;;;9.90;99.90;;;;;;5035058;28;20455;-61
2024/02/17 11:07:12;;;;;;;34.87;29.00;;;9.90;99.90;;;;;;5035119;28;20460;-61
2024/02/17 11:09:40;;;;;;;39.17;30.80;;;9.90;99.90;;;;;;5035720;28;20456;-61
2024/02/17 11:12:34;;;;;;;38.00;30.53;;;10.00;99.90;;;;;;5035809;28;21013;-61
2024/02/17 11:15:02;;;;;;;37.13;30.60;;;10.00;99.90;;;;;;5035671;28;20466;-61
2024/02/17 11:17:38;;;;;;;42.73;29.70;;;10.00;99.90;;;;;;5035738;28;20516;-61
2024/02/17 11:20:07;;;;;;;33.90;29.50;;;10.00;99.90;;;;;;5035676;28;20467;-61
2024/02/17 11:22:36;;;;;;;37.03;29.20;;;9.90;99.90;;;;;;5035158;28;20451;-61
2024/02/17 11:25:05;;;;;;;45.47;32.87;;;9.90;99.90;;;;;;5035274;28;20463;-61
2024/02/17 11:27:35;;;;;;;41.50;31.60;;;9.90;99.90;;;;;;5034944;28;20561;-62
2024/02/17 11:30:06;;;;;;;43.90;31.40;;;9.90;99.90;;;;;;5033737;28;20493;-61
2024/02/17 11:32:34;;;;;;;35.43;29.27;;;10.10;99.90;;;;;;5034592;28;20491;-63
2024/02/17 11:35:04;;;;;;;40.43;28.20;;;10.00;99.90;;;;;;5055503;28;20466;-61
2024/02/17 11:37:36;;;;;;;36.23;28.97;;;10.00;99.90;;;;;;5053991;28;20511;-61
2024/02/17 11:40:05;;;;;;;33.97;27.53;;;10.00;99.90;;;;;;5055552;28;20466;-61
2024/02/17 11:42:34;;;;;;;40.10;31.10;;;10.00;99.90;;;;;;5054953;28;20461;-61
2024/02/17 11:45:05;;;;;;;32.33;27.70;;;10.10;99.90;;;;;;5054799;28;20469;-60
2024/02/17 11:47:33;;;;;;;37.83;28.70;;;10.00;99.90;;;;;;5055127;28;20512;-61
2024/02/17 11:50:14;;;;;;;38.73;28.00;;;10.00;99.90;;;;;;5055386;28;20462;-61
2024/02/17 11:52:43;;;;;;;33.60;28.17;;;10.10;99.90;;;;;;5054579;28;20541;-62
2024/02/17 11:55:11;;;;;;;38.20;27.60;;;10.00;99.90;;;;;;5054922;28;20962;-61
2024/02/17 11:57:43;;;;;;;39.73;27.90;;;10.00;99.90;;;;;;5054924;28;20770;-60
2024/02/17 12:00:15;;;;;;;33.40;26.20;;;10.10;99.90;;;;;;5055031;28;20510;-62
2024/02/17 12:02:45;;;;;;;29.13;25.97;;;10.10;99.90;;;;;;5054435;28;20458;-61
2024/02/17 12:05:13;;;;;;;33.93;26.30;;;10.10;99.90;;;;;;5054549;28;20466;-61
2024/02/17 12:07:40;;;;;;;31.50;26.03;;;10.10;99.90;;;;;;5053998;28;20455;-60
2024/02/17 12:10:09;;;;;;;34.47;26.47;;;10.10;99.90;;;;;;5054921;28;20469;-62
2024/02/17 12:12:39;;;;;;;41.80;34.50;;;10.00;99.90;;;;;;5054669;28;20490;-61
2024/02/17 12:15:12;;;;;;;32.73;28.80;;;10.10;99.90;;;;;;5055030;28;20975;-60
2024/02/17 12:17:44;;;;;;;35.83;28.50;;;10.10;99.90;;;;;;5054805;28;20454;-61
2024/02/17 12:20:13;;;;;;;36.30;29.73;;;10.20;99.90;;;;;;5055004;28;20458;-61
2024/02/17 12:22:45;;;;;;;34.00;29.57;;;10.10;99.90;;;;;;5054570;28;20450;-61
2024/02/17 12:25:14;;;;;;;38.20;28.77;;;10.10;99.90;;;;;;5054720;28;20462;-61
2024/02/17 12:27:42;;;;;;;38.07;27.90;;;10.20;99.90;;;;;;5054684;28;20462;-61
2024/02/17 12:30:13;;;;;;;36.80;29.10;;;10.10;99.90;;;;;;5054826;28;20471;-61
2024/02/17 12:32:41;;;;;;;37.67;30.10;;;10.10;99.90;;;;;;5054074;28;20494;-62
2024/02/17 12:35:14;;;;;;;34.43;28.13;;;10.10;99.90;;;;;;5053501;28;20466;-66
2024/02/17 12:37:44;;;;;;;37.57;30.30;;;10.10;99.90;;;;;;5054362;28;20867;-67
2024/02/17 12:40:14;;;;;;;37.37;29.93;;;10.10;99.90;;;;;;5053655;27;20511;-70
2024/02/17 12:42:43;;;;;;;50.23;31.17;;;10.10;99.90;;;;;;5053947;28;20451;-67